Oscar Tybring IV — LAGK — position and weather

sailwx.info

Track history (hours):
 
Tides and Currents Weather Stations Pressure Air Temp Water Temp Dewpoint Dewpoint Depression Visibility Wind Speed Wind Dir Waves Ship Positions

Oscar Tybring IV

Last reported at 2017-Jul-20 14:00 UTC. Time now 2017-Jul-20 14:40 UTC.
Position N 58°06' E 006°48'.

Length 20 m.

Type: Cargo ship. MMSI: 257231500.

Date/timePositionNaut miles runAvg speedWind from/ knotsBaromVisibWave heightAir tempDewpointWater temp
2017-Jul-20 14:00N 58°06' E 006°48'0 0.0
2017-Jul-20 13:30N 58°06' E 006°48'0 0.0
2017-Jul-20 13:00N 58°06' E 006°48'0 0.0
2017-Jul-20 12:30N 58°06' E 006°48'0 0.0
2017-Jul-20 12:00N 58°06' E 006°48'0 0.0
2017-Jul-20 11:30N 58°06' E 006°48'0 0.0
2017-Jul-20 11:00N 58°06' E 006°48'0 0.0
2017-Jul-20 10:30N 58°06' E 006°48'0 0.0
2017-Jul-20 10:00N 58°06' E 006°48'0 0.0
2017-Jul-20 09:30N 58°06' E 006°48'0 0.0
2017-Jul-20 09:00N 58°06' E 006°48'0 0.0
2017-Jul-20 08:30N 58°06' E 006°48'0 0.0
2017-Jul-20 08:00N 58°06' E 006°48'0 0.0
2017-Jul-20 07:30N 58°06' E 006°48'0 0.0
2017-Jul-20 07:00N 58°06' E 006°48'0 0.0
2017-Jul-20 06:30N 58°06' E 006°48'0 0.0
2017-Jul-20 06:00N 58°06' E 006°48'0 0.0
2017-Jul-20 05:30N 58°06' E 006°48'0 0.0
2017-Jul-20 05:00N 58°06' E 006°48'0 0.0
2017-Jul-20 04:30N 58°06' E 006°48'0 0.0
2017-Jul-20 04:00N 58°06' E 006°48'0 0.0
2017-Jul-20 03:30N 58°06' E 006°48'0 0.0
2017-Jul-20 03:00N 58°06' E 006°48'0 0.0
2017-Jul-20 02:30N 58°06' E 006°48'0 0.0
2017-Jul-20 02:00N 58°06' E 006°48'0 0.0
2017-Jul-20 01:30N 58°06' E 006°48'0 0.0
2017-Jul-20 01:00N 58°06' E 006°48'0 0.0
2017-Jul-20 00:30N 58°06' E 006°48'0 0.0
2017-Jul-20 00:00N 58°06' E 006°48'0 0.0
2017-Jul-19 23:30N 58°06' E 006°48'0 0.0
2017-Jul-19 23:00N 58°06' E 006°48'0 0.0
2017-Jul-19 22:30N 58°06' E 006°48'0 0.0
2017-Jul-19 22:00N 58°06' E 006°48'0 0.0
2017-Jul-19 21:30N 58°06' E 006°48'0 0.0
2017-Jul-19 21:00N 58°06' E 006°48'0 0.0
2017-Jul-19 20:30N 58°06' E 006°48'0 0.0
2017-Jul-19 20:00N 58°06' E 006°48'0 0.0
2017-Jul-19 19:30N 58°06' E 006°48'0 0.4
2017-Jul-19 19:00N 58°06' E 006°49'510.7
2017-Jul-19 18:30N 58°03' E 006°40'815.4
2017-Jul-19 18:00N 58°11' E 006°37'713.8
2017-Jul-19 17:30N 58°15' E 006°27'510.1
2017-Jul-19 17:00N 58°19' E 006°20'0 0.0
2017-Jul-19 16:30N 58°19' E 006°20'2 3.7
2017-Jul-19 16:00N 58°18' E 006°17'918.7
2017-Jul-19 15:30N 58°15' E 006°34'713.3
2017-Jul-19 15:00N 58°08' E 006°33'917.8
2017-Jul-19 14:30N 58°02' E 006°45'4 8.1
2017-Jul-19 14:01N 58°06' E 006°49'0 0.4
2017-Jul-19 13:31N 58°06' E 006°48'0 0.0
2017-Jul-19 13:01N 58°06' E 006°48'0 0.0
2017-Jul-19 12:31N 58°06' E 006°48'0 0.0
2017-Jul-19 12:01N 58°06' E 006°48'0 0.0
2017-Jul-19 11:30N 58°06' E 006°48'0 0.0
2017-Jul-19 11:01N 58°06' E 006°48'0 0.0
2017-Jul-19 10:30N 58°06' E 006°48'0 0.0
2017-Jul-19 10:00N 58°06' E 006°48'0 0.0
2017-Jul-19 09:30N 58°06' E 006°48'0 0.0
2017-Jul-19 09:01N 58°06' E 006°48'0 0.0
2017-Jul-19 08:30N 58°06' E 006°48'0 0.0
2017-Jul-19 08:01N 58°06' E 006°48'0 0.0
2017-Jul-19 07:31N 58°06' E 006°48'0 0.0
2017-Jul-19 07:00N 58°06' E 006°48'0 0.0
2017-Jul-19 06:31N 58°06' E 006°48'0 0.0
2017-Jul-19 06:00N 58°06' E 006°48'2 4.2
2017-Jul-19 05:30N 58°04' E 006°51'2 4.2
2017-Jul-19 05:00N 58°06' E 006°48'0 0.0
2017-Jul-19 04:30N 58°06' E 006°48'0 0.0
2017-Jul-19 04:00N 58°06' E 006°48'0 0.0
2017-Jul-19 03:30N 58°06' E 006°48'0 0.0
2017-Jul-19 03:00N 58°06' E 006°48'0 0.0
2017-Jul-19 02:30N 58°06' E 006°48'0 0.0
2017-Jul-19 02:00N 58°06' E 006°48'0 0.0
2017-Jul-19 01:30N 58°06' E 006°48'0 0.0
2017-Jul-19 01:00N 58°06' E 006°48'0 0.0
2017-Jul-19 00:30N 58°06' E 006°48'0 0.0
2017-Jul-19 00:00N 58°06' E 006°48'0 0.0
2017-Jul-18 23:30N 58°06' E 006°48'0 0.0
2017-Jul-18 23:00N 58°06' E 006°48'0 0.0
2017-Jul-18 22:30N 58°06' E 006°48'0 0.0
2017-Jul-18 22:00N 58°06' E 006°48'0 0.0
2017-Jul-18 21:30N 58°06' E 006°48'0 0.0
2017-Jul-18 21:00N 58°06' E 006°48'0 0.0
2017-Jul-18 20:30N 58°06' E 006°48'0 0.0
2017-Jul-18 20:00N 58°06' E 006°48'0 0.2
2017-Jul-18 19:30N 58°06' E 006°49'3 6.4
2017-Jul-18 19:01N 58°03' E 006°51'3 6.5
2017-Jul-18 18:30N 58°06' E 006°48'0 0.0
2017-Jul-18 18:00N 58°06' E 006°48'0 0.0
2017-Jul-18 17:30N 58°06' E 006°48'0 0.0
2017-Jul-18 17:00N 58°06' E 006°48'0 0.0
2017-Jul-18 16:30N 58°06' E 006°48'0 0.0
2017-Jul-18 16:01N 58°06' E 006°48'0 0.0
2017-Jul-18 15:30N 58°06' E 006°48'0 0.0
2017-Jul-18 15:00N 58°06' E 006°48'0 0.0
2017-Jul-18 14:00N 58°06' E 006°48'0 0.0
2017-Jul-18 13:30N 58°06' E 006°48'0 0.0
2017-Jul-18 13:00N 58°06' E 006°48'0 0.0
2017-Jul-18 12:30N 58°06' E 006°48'0 0.0
2017-Jul-18 12:00N 58°06' E 006°48'0 0.0
2017-Jul-18 11:30N 58°06' E 006°48'0 0.0
2017-Jul-18 11:00N 58°06' E 006°48'0 0.0
2017-Jul-18 10:30N 58°06' E 006°48'0 0.0
2017-Jul-18 10:00N 58°06' E 006°48'0 0.0
2017-Jul-18 09:30N 58°06' E 006°48'0 0.0
2017-Jul-18 09:00N 58°06' E 006°48'0 0.0
2017-Jul-18 08:30N 58°06' E 006°48'0 0.0
2017-Jul-18 08:00N 58°06' E 006°48'0 0.0
2017-Jul-18 07:30N 58°06' E 006°48'0 0.0
2017-Jul-18 07:00N 58°06' E 006°48'0 0.0
2017-Jul-18 06:30N 58°06' E 006°48'0 0.0
2017-Jul-18 06:00N 58°06' E 006°48'0 0.0
2017-Jul-18 05:30N 58°06' E 006°48'0 0.0
2017-Jul-18 05:00N 58°06' E 006°48'0 0.0
2017-Jul-18 04:30N 58°06' E 006°48'0 0.0
2017-Jul-18 04:00N 58°06' E 006°48'0 0.0
2017-Jul-18 03:30N 58°06' E 006°48'0 0.0
2017-Jul-18 03:00N 58°06' E 006°48'0 0.0
2017-Jul-18 02:30N 58°06' E 006°48'0 0.0
2017-Jul-18 02:00N 58°06' E 006°48'0 0.0
2017-Jul-18 01:30N 58°06' E 006°48'0 0.0
2017-Jul-18 01:00N 58°06' E 006°48'0 0.0
2017-Jul-18 00:30N 58°06' E 006°48'0 0.0
2017-Jul-18 00:00N 58°06' E 006°48'0 0.0
2017-Jul-17 23:31N 58°06' E 006°48'0 0.0
2017-Jul-17 23:00N 58°06' E 006°48'0 0.0
2017-Jul-17 22:30N 58°06' E 006°48'0 0.0
2017-Jul-17 22:00N 58°06' E 006°48'0 0.0
2017-Jul-17 21:30N 58°06' E 006°48'0 0.0
2017-Jul-17 21:00N 58°06' E 006°48'0 0.0
2017-Jul-17 20:30N 58°06' E 006°48'0 0.0
2017-Jul-17 20:00N 58°06' E 006°48'0 0.0
2017-Jul-17 19:30N 58°06' E 006°48'0 0.0
2017-Jul-17 19:00N 58°06' E 006°48'0 0.0
2017-Jul-17 18:30N 58°06' E 006°48'0 0.0
2017-Jul-17 18:00N 58°06' E 006°48'0 0.0
2017-Jul-17 17:30N 58°06' E 006°48'0 0.0
2017-Jul-17 17:00N 58°06' E 006°48'0 0.0
2017-Jul-17 16:30N 58°06' E 006°48'0 0.0
2017-Jul-17 16:00N 58°06' E 006°48'0 0.0
2017-Jul-17 15:30N 58°06' E 006°48'0 0.0
2017-Jul-17 15:00N 58°06' E 006°48'0 0.0
2017-Jul-17 14:30N 58°06' E 006°48'0 0.0
2017-Jul-17 14:00N 58°06' E 006°48'5 9.4
2017-Jul-17 13:30N 58°03' E 006°56'1 2.7
2017-Jul-17 13:00N 58°03' E 006°59'612.0
2017-Jul-17 12:31N 58°06' E 006°48'0 0.0
2017-Jul-17 12:00N 58°06' E 006°48'0 0.0
2017-Jul-17 11:30N 58°06' E 006°48'0 0.0
2017-Jul-17 11:01N 58°06' E 006°48'1 1.8
2017-Jul-17 10:30N 58°05' E 006°50'3 5.8
2017-Jul-17 09:59N 58°05' E 006°55'4 7.8
2017-Jul-17 09:30N 58°06' E 006°48'0 0.0
2017-Jul-17 09:01N 58°06' E 006°48'0 0.0
2017-Jul-17 08:31N 58°06' E 006°48'0 0.0
2017-Jul-17 07:58N 58°06' E 006°48'0 0.0
2017-Jul-17 07:31N 58°06' E 006°48'0 0.0
2017-Jul-17 06:58N 58°06' E 006°48'0 0.0
2017-Jul-17 06:28N 58°06' E 006°48'0 0.0
2017-Jul-17 06:01N 58°06' E 006°48'0 0.0
2017-Jul-17 05:30N 58°06' E 006°48'0 0.0
2017-Jul-17 05:01N 58°06' E 006°48'0 0.0
2017-Jul-17 04:28N 58°06' E 006°48'0 0.0
2017-Jul-17 04:00N 58°06' E 006°48'0 0.0
2017-Jul-17 03:31N 58°06' E 006°48'0 0.0
2017-Jul-17 03:01N 58°06' E 006°48'0 0.0
2017-Jul-17 02:30N 58°06' E 006°48'0 0.0
2017-Jul-17 02:01N 58°06' E 006°48'0 0.0
2017-Jul-17 01:30N 58°06' E 006°48'0 0.0
2017-Jul-17 01:01N 58°06' E 006°48'0 0.0
2017-Jul-17 00:30N 58°06' E 006°48'0 0.0
2017-Jul-17 00:01N 58°06' E 006°48'0 0.0
2017-Jul-16 23:30N 58°06' E 006°48'0 0.0
2017-Jul-16 22:58N 58°06' E 006°48'0 0.0
2017-Jul-16 22:28N 58°06' E 006°48'0 0.0
2017-Jul-16 22:00N 58°06' E 006°48'2 4.3
2017-Jul-16 21:31N 58°04' E 006°51'0 0.3
2017-Jul-16 21:01N 58°04' E 006°51'2 3.9
2017-Jul-16 20:30N 58°06' E 006°48'0 0.0
2017-Jul-16 20:00N 58°06' E 006°48'0 0.0
2017-Jul-16 19:30N 58°06' E 006°48'0 0.0
2017-Jul-16 19:00N 58°06' E 006°48'0 0.0
2017-Jul-16 18:30N 58°06' E 006°48'0 0.0
2017-Jul-16 18:00N 58°06' E 006°48'0 0.0
2017-Jul-16 17:30N 58°06' E 006°48'0 0.0
2017-Jul-16 17:00N 58°06' E 006°48'0 0.0
2017-Jul-16 16:30N 58°06' E 006°48'0 0.0
2017-Jul-16 16:00N 58°06' E 006°48'0 0.0
2017-Jul-16 15:30N 58°06' E 006°48'0 0.0
2017-Jul-16 15:00N 58°06' E 006°48'0 0.0
2017-Jul-16 14:30N 58°06' E 006°48'0 0.0
2017-Jul-16 14:00N 58°06' E 006°48'0 0.0
2017-Jul-16 13:30N 58°06' E 006°48'0 0.0
2017-Jul-16 13:00N 58°06' E 006°48'0 0.0
2017-Jul-16 12:30N 58°06' E 006°48'0 0.0
2017-Jul-16 12:00N 58°06' E 006°48'0 0.0
2017-Jul-16 11:30N 58°06' E 006°48'0 0.0
2017-Jul-16 11:00N 58°06' E 006°48'0 0.0
2017-Jul-16 10:30N 58°06' E 006°48'0 0.0
2017-Jul-16 10:00N 58°06' E 006°48'0 0.0
2017-Jul-16 09:30N 58°06' E 006°48'0 0.0
2017-Jul-16 09:00N 58°06' E 006°48'0 0.0
2017-Jul-16 08:30N 58°06' E 006°48'0 0.0
2017-Jul-16 08:00N 58°06' E 006°48'0 0.0
2017-Jul-16 07:30N 58°06' E 006°48'0 0.0
2017-Jul-16 07:00N 58°06' E 006°48'0 0.0
2017-Jul-16 06:30N 58°06' E 006°48'0 0.0
2017-Jul-16 06:00N 58°06' E 006°48'0 0.0
2017-Jul-16 05:30N 58°06' E 006°48'0 0.0
2017-Jul-16 04:59N 58°06' E 006°48'0 0.0
2017-Jul-16 04:30N 58°06' E 006°48'0 0.0
2017-Jul-16 04:00N 58°06' E 006°48'0 0.0
2017-Jul-16 03:30N 58°06' E 006°48'0 0.0
2017-Jul-16 03:00N 58°06' E 006°48'0 0.0
2017-Jul-16 02:30N 58°06' E 006°48'0 0.0
2017-Jul-16 02:00N 58°06' E 006°48'0 0.0
2017-Jul-16 01:30N 58°06' E 006°48'0 0.0
2017-Jul-16 01:00N 58°06' E 006°48'0 0.0
2017-Jul-16 00:30N 58°06' E 006°48'0 0.0
2017-Jul-16 00:00N 58°06' E 006°48'0 0.0
2017-Jul-15 23:30N 58°06' E 006°48'0 0.0
2017-Jul-15 23:00N 58°06' E 006°48'0 0.0
2017-Jul-15 22:30N 58°06' E 006°48'0 0.0
2017-Jul-15 22:00N 58°06' E 006°48'0 0.0
2017-Jul-15 21:30N 58°06' E 006°48'0 0.0
2017-Jul-15 21:00N 58°06' E 006°48'0 0.0
2017-Jul-15 20:30N 58°06' E 006°48'0 0.0
2017-Jul-15 20:00N 58°06' E 006°48'0 0.0
2017-Jul-15 19:30N 58°06' E 006°48'0 0.0
2017-Jul-15 19:00N 58°06' E 006°48'0 0.0
2017-Jul-15 18:30N 58°06' E 006°48'0 0.0
2017-Jul-15 18:00N 58°06' E 006°48'0 0.0
2017-Jul-15 17:30N 58°06' E 006°48'0 0.0
2017-Jul-15 17:00N 58°06' E 006°48'0 0.0
2017-Jul-15 16:30N 58°06' E 006°48'0 0.0
2017-Jul-15 16:00N 58°06' E 006°48'0 0.0
2017-Jul-15 15:30N 58°06' E 006°48'0 0.0
2017-Jul-15 15:00N 58°06' E 006°48'0 0.0
2017-Jul-15 14:00N 58°06' E 006°48'0 0.0
2017-Jul-15 13:30N 58°06' E 006°48'0 0.0
2017-Jul-15 13:00N 58°06' E 006°48'0 0.0
2017-Jul-15 12:30N 58°06' E 006°48'0 0.0
2017-Jul-15 12:00N 58°06' E 006°48'0 0.0
2017-Jul-15 11:30N 58°06' E 006°48'0 0.0
2017-Jul-15 11:00N 58°06' E 006°48'0 0.0
2017-Jul-15 10:30N 58°06' E 006°48'0 0.0
2017-Jul-15 10:00N 58°06' E 006°48'0 0.0
2017-Jul-15 09:30N 58°06' E 006°48'0 0.0
2017-Jul-15 09:00N 58°06' E 006°48'0 0.0
2017-Jul-15 08:30N 58°06' E 006°48'0 0.0
2017-Jul-15 08:00N 58°06' E 006°48'0 0.0
2017-Jul-15 07:30N 58°06' E 006°48'0 0.0
2017-Jul-15 07:00N 58°06' E 006°48'0 0.0
2017-Jul-15 06:30N 58°06' E 006°48'0 0.0
2017-Jul-15 06:00N 58°06' E 006°48'0 0.0
2017-Jul-15 05:30N 58°06' E 006°48'0 0.0
2017-Jul-15 05:00N 58°06' E 006°48'0 0.0
2017-Jul-15 04:30N 58°06' E 006°48'0 0.0
2017-Jul-15 04:00N 58°06' E 006°48'0 0.0
2017-Jul-15 03:30N 58°06' E 006°48'0 0.0
2017-Jul-15 03:00N 58°06' E 006°48'0 0.0
2017-Jul-15 02:30N 58°06' E 006°48'0 0.0
2017-Jul-15 02:00N 58°06' E 006°48'0 0.0
2017-Jul-15 01:30N 58°06' E 006°48'0 0.0
2017-Jul-15 01:00N 58°06' E 006°48'0 0.0
2017-Jul-15 00:30N 58°06' E 006°48'0 0.0
2017-Jul-15 00:00N 58°06' E 006°48'0 0.0
2017-Jul-14 23:30N 58°06' E 006°48'0 0.0
2017-Jul-14 23:00N 58°06' E 006°48'0 0.0
2017-Jul-14 22:30N 58°06' E 006°48'0 0.0
2017-Jul-14 22:00N 58°06' E 006°48'0 0.0
2017-Jul-14 21:30N 58°06' E 006°48'0 0.0
2017-Jul-14 21:00N 58°06' E 006°48'0 0.0
2017-Jul-14 20:30N 58°06' E 006°48'0 0.0
2017-Jul-14 20:00N 58°06' E 006°48'0 0.0
2017-Jul-14 19:30N 58°06' E 006°48'0 0.0
2017-Jul-14 19:00N 58°06' E 006°48'0 0.0
2017-Jul-14 18:30N 58°06' E 006°48'0 0.0
2017-Jul-14 18:00N 58°06' E 006°48'0 0.0
2017-Jul-14 17:30N 58°06' E 006°48'0 0.0
2017-Jul-14 17:00N 58°06' E 006°48'0 0.0
2017-Jul-14 16:30N 58°06' E 006°48'0 0.0
2017-Jul-14 16:00N 58°06' E 006°48'0 0.0
2017-Jul-14 15:30N 58°06' E 006°48'0 0.0
2017-Jul-14 15:00N 58°06' E 006°48'0 0.0
2017-Jul-14 14:31N 58°06' E 006°48'0 0.0
2017-Jul-14 14:00N 58°06' E 006°48'1 1.9
2017-Jul-14 13:30N 58°05' E 006°50'1 1.9
2017-Jul-14 13:00N 58°06' E 006°48'2 3.1
2017-Jul-14 12:30N 58°05' E 006°51'2 4.2
2017-Jul-14 12:00N 58°04' E 006°55'3 6.3
2017-Jul-14 11:30N 58°05' E 006°49'4 8.3
2017-Jul-14 11:00N 58°03' E 006°56'4 9.0
2017-Jul-14 10:30N 58°06' E 006°49'3 5.9
2017-Jul-14 10:00N 58°03' E 006°47'3 6.0
2017-Jul-14 09:30N 58°06' E 006°48'0 0.0
2017-Jul-14 09:00N 58°06' E 006°48'0 0.0
2017-Jul-14 08:30N 58°06' E 006°48'2 4.1
2017-Jul-14 08:00N 58°04' E 006°51'5 9.6
2017-Jul-14 07:31N 58°01' E 006°45'5 9.5
2017-Jul-14 07:00N 58°05' E 006°50'1 2.4
2017-Jul-14 06:30N 58°06' E 006°48'0 0.0
2017-Jul-14 06:00N 58°06' E 006°48'0 0.0
2017-Jul-14 05:30N 58°06' E 006°48'0 0.0
2017-Jul-14 05:00N 58°06' E 006°48'0 0.0
2017-Jul-14 04:30N 58°06' E 006°48'0 0.0
2017-Jul-14 04:00N 58°06' E 006°48'0 0.0
2017-Jul-14 03:30N 58°06' E 006°48'0 0.0
2017-Jul-14 03:00N 58°06' E 006°48'0 0.0
2017-Jul-14 02:30N 58°06' E 006°48'0 0.0
2017-Jul-14 02:00N 58°06' E 006°48'0 0.0
2017-Jul-14 01:30N 58°06' E 006°48'0 0.0
2017-Jul-14 01:00N 58°06' E 006°48'0 0.0
2017-Jul-14 00:30N 58°06' E 006°48'0 0.0
2017-Jul-14 00:00N 58°06' E 006°48'0 0.0
2017-Jul-13 23:30N 58°06' E 006°48'0 0.0
2017-Jul-13 23:00N 58°06' E 006°48'0 0.0
2017-Jul-13 22:30N 58°06' E 006°48'0 0.0
2017-Jul-13 22:00N 58°06' E 006°48'0 0.0
2017-Jul-13 21:30N 58°06' E 006°48'0 0.0
2017-Jul-13 21:00N 58°06' E 006°48'0 0.0
2017-Jul-13 20:30N 58°06' E 006°48'0 0.0
2017-Jul-13 20:00N 58°06' E 006°48'0 0.0
2017-Jul-13 19:30N 58°06' E 006°48'0 0.0
2017-Jul-13 19:00N 58°06' E 006°48'0 0.0
2017-Jul-13 18:30N 58°06' E 006°48'0 0.0
2017-Jul-13 18:00N 58°06' E 006°48'0 0.0
2017-Jul-13 17:30N 58°06' E 006°48'0 0.0
2017-Jul-13 17:00N 58°06' E 006°48'0 0.0
2017-Jul-13 16:30N 58°06' E 006°48'0 0.0
2017-Jul-13 16:00N 58°06' E 006°48'3 5.2
2017-Jul-13 15:31N 58°04' E 006°52'4 7.9
2017-Jul-13 15:01N 58°03' E 006°59'612.4
2017-Jul-13 14:30N 58°06' E 006°48'0 0.0
2017-Jul-13 14:00N 58°06' E 006°48'0 0.0
2017-Jul-13 13:30N 58°06' E 006°48'0 0.0
2017-Jul-13 13:00N 58°06' E 006°48'0 0.0
2017-Jul-13 12:30N 58°06' E 006°48'0 0.0
2017-Jul-13 12:00N 58°06' E 006°48'0 0.0
2017-Jul-13 11:30N 58°06' E 006°48'0 0.0
2017-Jul-13 11:00N 58°06' E 006°48'0 0.0
2017-Jul-13 10:30N 58°06' E 006°48'0 0.0
2017-Jul-13 10:00N 58°06' E 006°48'0 0.0
2017-Jul-13 09:30N 58°06' E 006°48'0 0.0
2017-Jul-13 09:00N 58°06' E 006°48'0 0.0
2017-Jul-13 08:30N 58°06' E 006°48'0 0.0
2017-Jul-13 08:00N 58°06' E 006°48'0 0.0
2017-Jul-13 07:30N 58°06' E 006°48'0 0.0
2017-Jul-13 07:00N 58°06' E 006°48'0 0.0
2017-Jul-13 06:30N 58°06' E 006°48'0 0.0
2017-Jul-13 06:00N 58°06' E 006°48'0 0.0
2017-Jul-13 05:31N 58°06' E 006°48'5 9.8
2017-Jul-13 05:00N 58°01' E 006°52'5 9.9
2017-Jul-13 04:30N 58°06' E 006°48'0 0.0
2017-Jul-13 04:00N 58°06' E 006°48'0 0.0
2017-Jul-13 03:30N 58°06' E 006°48'0 0.0
2017-Jul-13 03:00N 58°06' E 006°48'0 0.0
2017-Jul-13 02:30N 58°06' E 006°48'0 0.0
2017-Jul-13 02:00N 58°06' E 006°48'0 0.0
2017-Jul-13 01:30N 58°06' E 006°48'0 0.0
2017-Jul-13 01:00N 58°06' E 006°48'0 0.0
2017-Jul-13 00:30N 58°06' E 006°48'0 0.0
2017-Jul-13 00:00N 58°06' E 006°48'0 0.0
2017-Jul-12 23:30N 58°06' E 006°48'0 0.0
2017-Jul-12 23:00N 58°06' E 006°48'0 0.0
2017-Jul-12 22:30N 58°06' E 006°48'0 0.0
2017-Jul-12 22:00N 58°06' E 006°48'0 0.0
2017-Jul-12 21:30N 58°06' E 006°48'0 0.0
2017-Jul-12 21:00N 58°06' E 006°48'0 0.0
2017-Jul-12 20:30N 58°06' E 006°48'0 0.0
2017-Jul-12 20:00N 58°06' E 006°48'0 0.0
2017-Jul-12 19:30N 58°06' E 006°48'0 0.0
2017-Jul-12 19:00N 58°06' E 006°48'0 0.0
2017-Jul-12 18:30N 58°06' E 006°48'0 0.0
2017-Jul-12 18:00N 58°06' E 006°48'0 0.0
2017-Jul-12 17:30N 58°06' E 006°48'0 0.0
2017-Jul-12 17:00N 58°06' E 006°48'0 0.0
2017-Jul-12 16:30N 58°06' E 006°48'0 0.0
2017-Jul-12 16:00N 58°06' E 006°48'0 0.0
2017-Jul-12 15:30N 58°06' E 006°48'0 0.0
2017-Jul-12 15:00N 58°06' E 006°48'0 0.0
2017-Jul-12 14:00N 58°06' E 006°48'0 0.0
2017-Jul-12 13:30N 58°06' E 006°48'0 0.0
2017-Jul-12 13:00N 58°06' E 006°48'0 0.0
2017-Jul-12 12:31N 58°06' E 006°48'0 0.0
2017-Jul-12 12:00N 58°06' E 006°48'1 1.0
2017-Jul-12 11:30N 58°05' E 006°49'0 0.8
2017-Jul-12 11:00N 58°06' E 006°49'0 0.5
2017-Jul-12 10:31N 58°06' E 006°48'0 0.0
2017-Jul-12 10:00N 58°06' E 006°48'0 0.0
2017-Jul-12 09:30N 58°06' E 006°48'0 0.0
2017-Jul-12 09:00N 58°06' E 006°48'0 0.0
2017-Jul-12 08:30N 58°06' E 006°48'0 0.0
2017-Jul-12 08:00N 58°06' E 006°48'0 0.0
2017-Jul-12 07:30N 58°06' E 006°48'0 0.0
2017-Jul-12 07:00N 58°06' E 006°48'0 0.0
2017-Jul-12 06:31N 58°06' E 006°48'0 0.0
2017-Jul-12 06:00N 58°06' E 006°48'0 0.0
2017-Jul-12 05:30N 58°06' E 006°48'0 0.0
2017-Jul-12 05:00N 58°06' E 006°48'0 0.0
2017-Jul-12 04:30N 58°06' E 006°48'0 0.0
2017-Jul-12 04:00N 58°06' E 006°48'0 0.0
2017-Jul-12 03:31N 58°06' E 006°48'0 0.0
2017-Jul-12 03:00N 58°06' E 006°48'0 0.0
2017-Jul-12 02:30N 58°06' E 006°48'0 0.0
2017-Jul-12 02:00N 58°06' E 006°48'0 0.0
2017-Jul-12 01:30N 58°06' E 006°48'0 0.0
2017-Jul-12 01:00N 58°06' E 006°48'0 0.0
2017-Jul-12 00:30N 58°06' E 006°48'0 0.0
2017-Jul-12 00:00N 58°06' E 006°48'0 0.0
2017-Jul-11 23:30N 58°06' E 006°48'0 0.0
2017-Jul-11 23:00N 58°06' E 006°48'0 0.0
2017-Jul-11 22:31N 58°06' E 006°48'0 0.0
2017-Jul-11 22:00N 58°06' E 006°48'0 0.0
2017-Jul-11 21:30N 58°06' E 006°48'0 0.0
2017-Jul-11 21:00N 58°06' E 006°48'0 0.0
2017-Jul-11 20:30N 58°06' E 006°48'0 0.0
2017-Jul-11 20:00N 58°06' E 006°48'0 0.0
2017-Jul-11 19:30N 58°06' E 006°48'0 0.0
2017-Jul-11 19:00N 58°06' E 006°48'0 0.0
2017-Jul-11 18:31N 58°06' E 006°48'0 0.0
2017-Jul-11 18:00N 58°06' E 006°48'0 0.0
2017-Jul-11 17:31N 58°06' E 006°48'0 0.0
2017-Jul-11 17:01N 58°06' E 006°48'0 0.0
2017-Jul-11 16:30N 58°06' E 006°48'0 0.0
2017-Jul-11 16:01N 58°06' E 006°48'0 0.0
2017-Jul-11 15:30N 58°06' E 006°48'0 0.0
2017-Jul-11 15:00N 58°06' E 006°48'0 0.0
2017-Jul-11 14:30N 58°06' E 006°48'0 0.0
2017-Jul-11 14:01N 58°06' E 006°48'0 0.0
2017-Jul-11 13:30N 58°06' E 006°48'0 0.0
2017-Jul-11 13:00N 58°06' E 006°48'0 0.0
2017-Jul-11 12:30N 58°06' E 006°48'2 4.5
2017-Jul-11 12:00N 58°04' E 006°52'4 8.4
2017-Jul-11 11:31N 58°03' E 006°59'612.2
2017-Jul-11 11:00N 58°05' E 006°48'1 1.5
2017-Jul-11 10:30N 58°06' E 006°48'0 0.0
2017-Jul-11 10:00N 58°06' E 006°48'0 0.0
2017-Jul-11 09:30N 58°06' E 006°48'0 0.0
2017-Jul-11 09:00N 58°06' E 006°48'0 0.0
2017-Jul-11 08:30N 58°06' E 006°48'0 0.0
2017-Jul-11 08:00N 58°06' E 006°48'0 0.0
2017-Jul-11 07:30N 58°06' E 006°48'0 0.0
2017-Jul-11 07:00N 58°06' E 006°48'0 0.0
2017-Jul-11 06:30N 58°06' E 006°48'0 0.0
2017-Jul-11 06:00N 58°06' E 006°48'0 0.0
2017-Jul-11 05:30N 58°06' E 006°48'0 0.0
2017-Jul-11 05:00N 58°06' E 006°48'0 0.0
2017-Jul-11 04:30N 58°06' E 006°48'0 0.0
2017-Jul-11 04:00N 58°06' E 006°48'0 0.0
2017-Jul-11 03:30N 58°06' E 006°48'0 0.0
2017-Jul-11 03:00N 58°06' E 006°48'0 0.0
2017-Jul-11 02:30N 58°06' E 006°48'0 0.0
2017-Jul-11 02:00N 58°06' E 006°48'0 0.0
2017-Jul-11 01:30N 58°06' E 006°48'0 0.0
2017-Jul-11 01:00N 58°06' E 006°48'0 0.0
2017-Jul-11 00:30N 58°06' E 006°48'0 0.0
2017-Jul-11 00:00N 58°06' E 006°48'0 0.0
2017-Jul-10 23:30N 58°06' E 006°48'0 0.0
2017-Jul-10 23:00N 58°06' E 006°48'0 0.0
2017-Jul-10 22:30N 58°06' E 006°48'0 0.0
2017-Jul-10 22:00N 58°06' E 006°48'0 0.0
2017-Jul-10 21:30N 58°06' E 006°48'0 0.0
2017-Jul-10 21:00N 58°06' E 006°48'1 1.4
2017-Jul-10 20:31N 58°05' E 006°49'510.3
2017-Jul-10 20:00N 58°03' E 006°58'1 2.6
2017-Jul-10 19:30N 58°02' E 006°56'510.1
2017-Jul-10 19:00N 58°05' E 006°49'1 1.5
2017-Jul-10 18:30N 58°06' E 006°48'0 0.0
2017-Jul-10 18:00N 58°06' E 006°48'0 0.0
2017-Jul-10 17:30N 58°06' E 006°48'0 0.0
2017-Jul-10 17:00N 58°06' E 006°48'0 0.0
2017-Jul-10 16:30N 58°06' E 006°48'0 0.0
2017-Jul-10 16:00N 58°06' E 006°48'0 0.0
2017-Jul-10 15:30N 58°06' E 006°48'0 0.0
2017-Jul-10 15:00N 58°06' E 006°48'0 0.0
2017-Jul-10 14:30N 58°06' E 006°48'  
Track history (hours):
 
Tides and Currents Weather Stations Pressure Air Temp Water Temp Dewpoint Dewpoint Depression Visibility Wind Speed Wind Dir Waves Ship Positions

Oscar Tybring IV

Last reported at 2017-Jul-20 14:00 UTC. Time now 2017-Jul-20 14:40 UTC.
Position N 58°06' E 006°48'.

Length 20 m.

Type: Cargo ship. MMSI: 257231500.

Date/timePositionNaut miles runAvg speedWind from/ knotsBaromVisibWave heightAir tempDewpointWater temp
2017-Jul-20 14:00N 58°06' E 006°48'0 0.0
2017-Jul-20 13:30N 58°06' E 006°48'0 0.0
2017-Jul-20 13:00N 58°06' E 006°48'0 0.0
2017-Jul-20 12:30N 58°06' E 006°48'0 0.0
2017-Jul-20 12:00N 58°06' E 006°48'0 0.0
2017-Jul-20 11:30N 58°06' E 006°48'0 0.0
2017-Jul-20 11:00N 58°06' E 006°48'0 0.0
2017-Jul-20 10:30N 58°06' E 006°48'0 0.0
2017-Jul-20 10:00N 58°06' E 006°48'0 0.0
2017-Jul-20 09:30N 58°06' E 006°48'0 0.0
2017-Jul-20 09:00N 58°06' E 006°48'0 0.0
2017-Jul-20 08:30N 58°06' E 006°48'0 0.0
2017-Jul-20 08:00N 58°06' E 006°48'0 0.0
2017-Jul-20 07:30N 58°06' E 006°48'0 0.0
2017-Jul-20 07:00N 58°06' E 006°48'0 0.0
2017-Jul-20 06:30N 58°06' E 006°48'0 0.0
2017-Jul-20 06:00N 58°06' E 006°48'0 0.0
2017-Jul-20 05:30N 58°06' E 006°48'0 0.0
2017-Jul-20 05:00N 58°06' E 006°48'0 0.0
2017-Jul-20 04:30N 58°06' E 006°48'0 0.0
2017-Jul-20 04:00N 58°06' E 006°48'0 0.0
2017-Jul-20 03:30N 58°06' E 006°48'0 0.0
2017-Jul-20 03:00N 58°06' E 006°48'0 0.0
2017-Jul-20 02:30N 58°06' E 006°48'0 0.0
2017-Jul-20 02:00N 58°06' E 006°48'0 0.0
2017-Jul-20 01:30N 58°06' E 006°48'0 0.0
2017-Jul-20 01:00N 58°06' E 006°48'0 0.0
2017-Jul-20 00:30N 58°06' E 006°48'0 0.0
2017-Jul-20 00:00N 58°06' E 006°48'0 0.0
2017-Jul-19 23:30N 58°06' E 006°48'0 0.0
2017-Jul-19 23:00N 58°06' E 006°48'0 0.0
2017-Jul-19 22:30N 58°06' E 006°48'0 0.0
2017-Jul-19 22:00N 58°06' E 006°48'0 0.0
2017-Jul-19 21:30N 58°06' E 006°48'0 0.0
2017-Jul-19 21:00N 58°06' E 006°48'0 0.0
2017-Jul-19 20:30N 58°06' E 006°48'0 0.0
2017-Jul-19 20:00N 58°06' E 006°48'0 0.0
2017-Jul-19 19:30N 58°06' E 006°48'0 0.4
2017-Jul-19 19:00N 58°06' E 006°49'510.7
2017-Jul-19 18:30N 58°03' E 006°40'815.4
2017-Jul-19 18:00N 58°11' E 006°37'713.8
2017-Jul-19 17:30N 58°15' E 006°27'510.1
2017-Jul-19 17:00N 58°19' E 006°20'0 0.0
2017-Jul-19 16:30N 58°19' E 006°20'2 3.7
2017-Jul-19 16:00N 58°18' E 006°17'918.7
2017-Jul-19 15:30N 58°15' E 006°34'713.3
2017-Jul-19 15:00N 58°08' E 006°33'917.8
2017-Jul-19 14:30N 58°02' E 006°45'4 8.1
2017-Jul-19 14:01N 58°06' E 006°49'0 0.4
2017-Jul-19 13:31N 58°06' E 006°48'0 0.0
2017-Jul-19 13:01N 58°06' E 006°48'0 0.0
2017-Jul-19 12:31N 58°06' E 006°48'0 0.0
2017-Jul-19 12:01N 58°06' E 006°48'0 0.0
2017-Jul-19 11:30N 58°06' E 006°48'0 0.0
2017-Jul-19 11:01N 58°06' E 006°48'0 0.0
2017-Jul-19 10:30N 58°06' E 006°48'0 0.0
2017-Jul-19 10:00N 58°06' E 006°48'0 0.0
2017-Jul-19 09:30N 58°06' E 006°48'0 0.0
2017-Jul-19 09:01N 58°06' E 006°48'0 0.0
2017-Jul-19 08:30N 58°06' E 006°48'0 0.0
2017-Jul-19 08:01N 58°06' E 006°48'0 0.0
2017-Jul-19 07:31N 58°06' E 006°48'0 0.0
2017-Jul-19 07:00N 58°06' E 006°48'0 0.0
2017-Jul-19 06:31N 58°06' E 006°48'0 0.0
2017-Jul-19 06:00N 58°06' E 006°48'2 4.2
2017-Jul-19 05:30N 58°04' E 006°51'2 4.2
2017-Jul-19 05:00N 58°06' E 006°48'0 0.0
2017-Jul-19 04:30N 58°06' E 006°48'0 0.0
2017-Jul-19 04:00N 58°06' E 006°48'0 0.0
2017-Jul-19 03:30N 58°06' E 006°48'0 0.0
2017-Jul-19 03:00N 58°06' E 006°48'0 0.0
2017-Jul-19 02:30N 58°06' E 006°48'0 0.0
2017-Jul-19 02:00N 58°06' E 006°48'0 0.0
2017-Jul-19 01:30N 58°06' E 006°48'0 0.0
2017-Jul-19 01:00N 58°06' E 006°48'0 0.0
2017-Jul-19 00:30N 58°06' E 006°48'0 0.0
2017-Jul-19 00:00N 58°06' E 006°48'0 0.0
2017-Jul-18 23:30N 58°06' E 006°48'0 0.0
2017-Jul-18 23:00N 58°06' E 006°48'0 0.0
2017-Jul-18 22:30N 58°06' E 006°48'0 0.0
2017-Jul-18 22:00N 58°06' E 006°48'0 0.0
2017-Jul-18 21:30N 58°06' E 006°48'0 0.0
2017-Jul-18 21:00N 58°06' E 006°48'0 0.0
2017-Jul-18 20:30N 58°06' E 006°48'0 0.0
2017-Jul-18 20:00N 58°06' E 006°48'0 0.2
2017-Jul-18 19:30N 58°06' E 006°49'3 6.4
2017-Jul-18 19:01N 58°03' E 006°51'3 6.5
2017-Jul-18 18:30N 58°06' E 006°48'0 0.0
2017-Jul-18 18:00N 58°06' E 006°48'0 0.0
2017-Jul-18 17:30N 58°06' E 006°48'0 0.0
2017-Jul-18 17:00N 58°06' E 006°48'0 0.0
2017-Jul-18 16:30N 58°06' E 006°48'0 0.0
2017-Jul-18 16:01N 58°06' E 006°48'0 0.0
2017-Jul-18 15:30N 58°06' E 006°48'0 0.0
2017-Jul-18 15:00N 58°06' E 006°48'0 0.0
2017-Jul-18 14:00N 58°06' E 006°48'0 0.0
2017-Jul-18 13:30N 58°06' E 006°48'0 0.0
2017-Jul-18 13:00N 58°06' E 006°48'0 0.0
2017-Jul-18 12:30N 58°06' E 006°48'0 0.0
2017-Jul-18 12:00N 58°06' E 006°48'0 0.0
2017-Jul-18 11:30N 58°06' E 006°48'0 0.0
2017-Jul-18 11:00N 58°06' E 006°48'0 0.0
2017-Jul-18 10:30N 58°06' E 006°48'0 0.0
2017-Jul-18 10:00N 58°06' E 006°48'0 0.0
2017-Jul-18 09:30N 58°06' E 006°48'0 0.0
2017-Jul-18 09:00N 58°06' E 006°48'0 0.0
2017-Jul-18 08:30N 58°06' E 006°48'0 0.0
2017-Jul-18 08:00N 58°06' E 006°48'0 0.0
2017-Jul-18 07:30N 58°06' E 006°48'0 0.0
2017-Jul-18 07:00N 58°06' E 006°48'0 0.0
2017-Jul-18 06:30N 58°06' E 006°48'0 0.0
2017-Jul-18 06:00N 58°06' E 006°48'0 0.0
2017-Jul-18 05:30N 58°06' E 006°48'0 0.0
2017-Jul-18 05:00N 58°06' E 006°48'0 0.0
2017-Jul-18 04:30N 58°06' E 006°48'0 0.0
2017-Jul-18 04:00N 58°06' E 006°48'0 0.0
2017-Jul-18 03:30N 58°06' E 006°48'0 0.0
2017-Jul-18 03:00N 58°06' E 006°48'0 0.0
2017-Jul-18 02:30N 58°06' E 006°48'0 0.0
2017-Jul-18 02:00N 58°06' E 006°48'0 0.0
2017-Jul-18 01:30N 58°06' E 006°48'0 0.0
2017-Jul-18 01:00N 58°06' E 006°48'0 0.0
2017-Jul-18 00:30N 58°06' E 006°48'0 0.0
2017-Jul-18 00:00N 58°06' E 006°48'0 0.0
2017-Jul-17 23:31N 58°06' E 006°48'0 0.0
2017-Jul-17 23:00N 58°06' E 006°48'0 0.0
2017-Jul-17 22:30N 58°06' E 006°48'0 0.0
2017-Jul-17 22:00N 58°06' E 006°48'0 0.0
2017-Jul-17 21:30N 58°06' E 006°48'0 0.0
2017-Jul-17 21:00N 58°06' E 006°48'0 0.0
2017-Jul-17 20:30N 58°06' E 006°48'0 0.0
2017-Jul-17 20:00N 58°06' E 006°48'0 0.0
2017-Jul-17 19:30N 58°06' E 006°48'0 0.0
2017-Jul-17 19:00N 58°06' E 006°48'0 0.0
2017-Jul-17 18:30N 58°06' E 006°48'0 0.0
2017-Jul-17 18:00N 58°06' E 006°48'0 0.0
2017-Jul-17 17:30N 58°06' E 006°48'0 0.0
2017-Jul-17 17:00N 58°06' E 006°48'0 0.0
2017-Jul-17 16:30N 58°06' E 006°48'0 0.0
2017-Jul-17 16:00N 58°06' E 006°48'0 0.0
2017-Jul-17 15:30N 58°06' E 006°48'0 0.0
2017-Jul-17 15:00N 58°06' E 006°48'0 0.0
2017-Jul-17 14:30N 58°06' E 006°48'0 0.0
2017-Jul-17 14:00N 58°06' E 006°48'5 9.4
2017-Jul-17 13:30N 58°03' E 006°56'1 2.7
2017-Jul-17 13:00N 58°03' E 006°59'612.0
2017-Jul-17 12:31N 58°06' E 006°48'0 0.0
2017-Jul-17 12:00N 58°06' E 006°48'0 0.0
2017-Jul-17 11:30N 58°06' E 006°48'0 0.0
2017-Jul-17 11:01N 58°06' E 006°48'1 1.8
2017-Jul-17 10:30N 58°05' E 006°50'3 5.8
2017-Jul-17 09:59N 58°05' E 006°55'4 7.8
2017-Jul-17 09:30N 58°06' E 006°48'0 0.0
2017-Jul-17 09:01N 58°06' E 006°48'0 0.0
2017-Jul-17 08:31N 58°06' E 006°48'0 0.0
2017-Jul-17 07:58N 58°06' E 006°48'0 0.0
2017-Jul-17 07:31N 58°06' E 006°48'0 0.0
2017-Jul-17 06:58N 58°06' E 006°48'0 0.0
2017-Jul-17 06:28N 58°06' E 006°48'0 0.0
2017-Jul-17 06:01N 58°06' E 006°48'0 0.0
2017-Jul-17 05:30N 58°06' E 006°48'0 0.0
2017-Jul-17 05:01N 58°06' E 006°48'0 0.0
2017-Jul-17 04:28N 58°06' E 006°48'0 0.0
2017-Jul-17 04:00N 58°06' E 006°48'0 0.0
2017-Jul-17 03:31N 58°06' E 006°48'0 0.0
2017-Jul-17 03:01N 58°06' E 006°48'0 0.0
2017-Jul-17 02:30N 58°06' E 006°48'0 0.0
2017-Jul-17 02:01N 58°06' E 006°48'0 0.0
2017-Jul-17 01:30N 58°06' E 006°48'0 0.0
2017-Jul-17 01:01N 58°06' E 006°48'0 0.0
2017-Jul-17 00:30N 58°06' E 006°48'0 0.0
2017-Jul-17 00:01N 58°06' E 006°48'0 0.0
2017-Jul-16 23:30N 58°06' E 006°48'0 0.0
2017-Jul-16 22:58N 58°06' E 006°48'0 0.0
2017-Jul-16 22:28N 58°06' E 006°48'0 0.0
2017-Jul-16 22:00N 58°06' E 006°48'2 4.3
2017-Jul-16 21:31N 58°04' E 006°51'0 0.3
2017-Jul-16 21:01N 58°04' E 006°51'2 3.9
2017-Jul-16 20:30N 58°06' E 006°48'0 0.0
2017-Jul-16 20:00N 58°06' E 006°48'0 0.0
2017-Jul-16 19:30N 58°06' E 006°48'0 0.0
2017-Jul-16 19:00N 58°06' E 006°48'0 0.0
2017-Jul-16 18:30N 58°06' E 006°48'0 0.0
2017-Jul-16 18:00N 58°06' E 006°48'0 0.0
2017-Jul-16 17:30N 58°06' E 006°48'0 0.0
2017-Jul-16 17:00N 58°06' E 006°48'0 0.0
2017-Jul-16 16:30N 58°06' E 006°48'0 0.0
2017-Jul-16 16:00N 58°06' E 006°48'0 0.0
2017-Jul-16 15:30N 58°06' E 006°48'0 0.0
2017-Jul-16 15:00N 58°06' E 006°48'0 0.0
2017-Jul-16 14:30N 58°06' E 006°48'0 0.0
2017-Jul-16 14:00N 58°06' E 006°48'0 0.0
2017-Jul-16 13:30N 58°06' E 006°48'0 0.0
2017-Jul-16 13:00N 58°06' E 006°48'0 0.0
2017-Jul-16 12:30N 58°06' E 006°48'0 0.0
2017-Jul-16 12:00N 58°06' E 006°48'0 0.0
2017-Jul-16 11:30N 58°06' E 006°48'0 0.0
2017-Jul-16 11:00N 58°06' E 006°48'0 0.0
2017-Jul-16 10:30N 58°06' E 006°48'0 0.0
2017-Jul-16 10:00N 58°06' E 006°48'0 0.0
2017-Jul-16 09:30N 58°06' E 006°48'0 0.0
2017-Jul-16 09:00N 58°06' E 006°48'0 0.0
2017-Jul-16 08:30N 58°06' E 006°48'0 0.0
2017-Jul-16 08:00N 58°06' E 006°48'0 0.0
2017-Jul-16 07:30N 58°06' E 006°48'0 0.0
2017-Jul-16 07:00N 58°06' E 006°48'0 0.0
2017-Jul-16 06:30N 58°06' E 006°48'0 0.0
2017-Jul-16 06:00N 58°06' E 006°48'0 0.0
2017-Jul-16 05:30N 58°06' E 006°48'0 0.0
2017-Jul-16 04:59N 58°06' E 006°48'0 0.0
2017-Jul-16 04:30N 58°06' E 006°48'0 0.0
2017-Jul-16 04:00N 58°06' E 006°48'0 0.0
2017-Jul-16 03:30N 58°06' E 006°48'0 0.0
2017-Jul-16 03:00N 58°06' E 006°48'0 0.0
2017-Jul-16 02:30N 58°06' E 006°48'0 0.0
2017-Jul-16 02:00N 58°06' E 006°48'0 0.0
2017-Jul-16 01:30N 58°06' E 006°48'0 0.0
2017-Jul-16 01:00N 58°06' E 006°48'0 0.0
2017-Jul-16 00:30N 58°06' E 006°48'0 0.0
2017-Jul-16 00:00N 58°06' E 006°48'0 0.0
2017-Jul-15 23:30N 58°06' E 006°48'0 0.0
2017-Jul-15 23:00N 58°06' E 006°48'0 0.0
2017-Jul-15 22:30N 58°06' E 006°48'0 0.0
2017-Jul-15 22:00N 58°06' E 006°48'0 0.0
2017-Jul-15 21:30N 58°06' E 006°48'0 0.0
2017-Jul-15 21:00N 58°06' E 006°48'0 0.0
2017-Jul-15 20:30N 58°06' E 006°48'0 0.0
2017-Jul-15 20:00N 58°06' E 006°48'0 0.0
2017-Jul-15 19:30N 58°06' E 006°48'0 0.0
2017-Jul-15 19:00N 58°06' E 006°48'0 0.0
2017-Jul-15 18:30N 58°06' E 006°48'0 0.0
2017-Jul-15 18:00N 58°06' E 006°48'0 0.0
2017-Jul-15 17:30N 58°06' E 006°48'0 0.0
2017-Jul-15 17:00N 58°06' E 006°48'0 0.0
2017-Jul-15 16:30N 58°06' E 006°48'0 0.0
2017-Jul-15 16:00N 58°06' E 006°48'0 0.0
2017-Jul-15 15:30N 58°06' E 006°48'0 0.0
2017-Jul-15 15:00N 58°06' E 006°48'0 0.0
2017-Jul-15 14:00N 58°06' E 006°48'0 0.0
2017-Jul-15 13:30N 58°06' E 006°48'0 0.0
2017-Jul-15 13:00N 58°06' E 006°48'0 0.0
2017-Jul-15 12:30N 58°06' E 006°48'0 0.0
2017-Jul-15 12:00N 58°06' E 006°48'0 0.0
2017-Jul-15 11:30N 58°06' E 006°48'0 0.0
2017-Jul-15 11:00N 58°06' E 006°48'0 0.0
2017-Jul-15 10:30N 58°06' E 006°48'0 0.0
2017-Jul-15 10:00N 58°06' E 006°48'0 0.0
2017-Jul-15 09:30N 58°06' E 006°48'0 0.0
2017-Jul-15 09:00N 58°06' E 006°48'0 0.0
2017-Jul-15 08:30N 58°06' E 006°48'0 0.0
2017-Jul-15 08:00N 58°06' E 006°48'0 0.0
2017-Jul-15 07:30N 58°06' E 006°48'0 0.0
2017-Jul-15 07:00N 58°06' E 006°48'0 0.0
2017-Jul-15 06:30N 58°06' E 006°48'0 0.0
2017-Jul-15 06:00N 58°06' E 006°48'0 0.0
2017-Jul-15 05:30N 58°06' E 006°48'0 0.0
2017-Jul-15 05:00N 58°06' E 006°48'0 0.0
2017-Jul-15 04:30N 58°06' E 006°48'0 0.0
2017-Jul-15 04:00N 58°06' E 006°48'0 0.0
2017-Jul-15 03:30N 58°06' E 006°48'0 0.0
2017-Jul-15 03:00N 58°06' E 006°48'0 0.0
2017-Jul-15 02:30N 58°06' E 006°48'0 0.0
2017-Jul-15 02:00N 58°06' E 006°48'0 0.0
2017-Jul-15 01:30N 58°06' E 006°48'0 0.0
2017-Jul-15 01:00N 58°06' E 006°48'0 0.0
2017-Jul-15 00:30N 58°06' E 006°48'0 0.0
2017-Jul-15 00:00N 58°06' E 006°48'0 0.0
2017-Jul-14 23:30N 58°06' E 006°48'0 0.0
2017-Jul-14 23:00N 58°06' E 006°48'0 0.0
2017-Jul-14 22:30N 58°06' E 006°48'0 0.0
2017-Jul-14 22:00N 58°06' E 006°48'0 0.0
2017-Jul-14 21:30N 58°06' E 006°48'0 0.0
2017-Jul-14 21:00N 58°06' E 006°48'0 0.0
2017-Jul-14 20:30N 58°06' E 006°48'0 0.0
2017-Jul-14 20:00N 58°06' E 006°48'0 0.0
2017-Jul-14 19:30N 58°06' E 006°48'0 0.0
2017-Jul-14 19:00N 58°06' E 006°48'0 0.0
2017-Jul-14 18:30N 58°06' E 006°48'0 0.0
2017-Jul-14 18:00N 58°06' E 006°48'0 0.0
2017-Jul-14 17:30N 58°06' E 006°48'0 0.0
2017-Jul-14 17:00N 58°06' E 006°48'0 0.0
2017-Jul-14 16:30N 58°06' E 006°48'0 0.0
2017-Jul-14 16:00N 58°06' E 006°48'0 0.0
2017-Jul-14 15:30N 58°06' E 006°48'0 0.0
2017-Jul-14 15:00N 58°06' E 006°48'0 0.0
2017-Jul-14 14:31N 58°06' E 006°48'0 0.0
2017-Jul-14 14:00N 58°06' E 006°48'1 1.9
2017-Jul-14 13:30N 58°05' E 006°50'1 1.9
2017-Jul-14 13:00N 58°06' E 006°48'2 3.1
2017-Jul-14 12:30N 58°05' E 006°51'2 4.2
2017-Jul-14 12:00N 58°04' E 006°55'3 6.3
2017-Jul-14 11:30N 58°05' E 006°49'4 8.3
2017-Jul-14 11:00N 58°03' E 006°56'4 9.0
2017-Jul-14 10:30N 58°06' E 006°49'3 5.9
2017-Jul-14 10:00N 58°03' E 006°47'3 6.0
2017-Jul-14 09:30N 58°06' E 006°48'0 0.0
2017-Jul-14 09:00N 58°06' E 006°48'0 0.0
2017-Jul-14 08:30N 58°06' E 006°48'2 4.1
2017-Jul-14 08:00N 58°04' E 006°51'5 9.6
2017-Jul-14 07:31N 58°01' E 006°45'5 9.5
2017-Jul-14 07:00N 58°05' E 006°50'1 2.4
2017-Jul-14 06:30N 58°06' E 006°48'0 0.0
2017-Jul-14 06:00N 58°06' E 006°48'0 0.0
2017-Jul-14 05:30N 58°06' E 006°48'0 0.0
2017-Jul-14 05:00N 58°06' E 006°48'0 0.0
2017-Jul-14 04:30N 58°06' E 006°48'0 0.0
2017-Jul-14 04:00N 58°06' E 006°48'0 0.0
2017-Jul-14 03:30N 58°06' E 006°48'0 0.0
2017-Jul-14 03:00N 58°06' E 006°48'0 0.0
2017-Jul-14 02:30N 58°06' E 006°48'0 0.0
2017-Jul-14 02:00N 58°06' E 006°48'0 0.0
2017-Jul-14 01:30N 58°06' E 006°48'0 0.0
2017-Jul-14 01:00N 58°06' E 006°48'0 0.0
2017-Jul-14 00:30N 58°06' E 006°48'0 0.0
2017-Jul-14 00:00N 58°06' E 006°48'0 0.0
2017-Jul-13 23:30N 58°06' E 006°48'0 0.0
2017-Jul-13 23:00N 58°06' E 006°48'0 0.0
2017-Jul-13 22:30N 58°06' E 006°48'0 0.0
2017-Jul-13 22:00N 58°06' E 006°48'0 0.0
2017-Jul-13 21:30N 58°06' E 006°48'0 0.0
2017-Jul-13 21:00N 58°06' E 006°48'0 0.0
2017-Jul-13 20:30N 58°06' E 006°48'0 0.0
2017-Jul-13 20:00N 58°06' E 006°48'0 0.0
2017-Jul-13 19:30N 58°06' E 006°48'0 0.0
2017-Jul-13 19:00N 58°06' E 006°48'0 0.0
2017-Jul-13 18:30N 58°06' E 006°48'0 0.0
2017-Jul-13 18:00N 58°06' E 006°48'0 0.0
2017-Jul-13 17:30N 58°06' E 006°48'0 0.0
2017-Jul-13 17:00N 58°06' E 006°48'0 0.0
2017-Jul-13 16:30N 58°06' E 006°48'0 0.0
2017-Jul-13 16:00N 58°06' E 006°48'3 5.2
2017-Jul-13 15:31N 58°04' E 006°52'4 7.9
2017-Jul-13 15:01N 58°03' E 006°59'612.4
2017-Jul-13 14:30N 58°06' E 006°48'0 0.0
2017-Jul-13 14:00N 58°06' E 006°48'0 0.0
2017-Jul-13 13:30N 58°06' E 006°48'0 0.0
2017-Jul-13 13:00N 58°06' E 006°48'0 0.0
2017-Jul-13 12:30N 58°06' E 006°48'0 0.0
2017-Jul-13 12:00N 58°06' E 006°48'0 0.0
2017-Jul-13 11:30N 58°06' E 006°48'0 0.0
2017-Jul-13 11:00N 58°06' E 006°48'0 0.0
2017-Jul-13 10:30N 58°06' E 006°48'0 0.0
2017-Jul-13 10:00N 58°06' E 006°48'0 0.0
2017-Jul-13 09:30N 58°06' E 006°48'0 0.0
2017-Jul-13 09:00N 58°06' E 006°48'0 0.0
2017-Jul-13 08:30N 58°06' E 006°48'0 0.0
2017-Jul-13 08:00N 58°06' E 006°48'0 0.0
2017-Jul-13 07:30N 58°06' E 006°48'0 0.0
2017-Jul-13 07:00N 58°06' E 006°48'0 0.0
2017-Jul-13 06:30N 58°06' E 006°48'0 0.0
2017-Jul-13 06:00N 58°06' E 006°48'0 0.0
2017-Jul-13 05:31N 58°06' E 006°48'5 9.8
2017-Jul-13 05:00N 58°01' E 006°52'5 9.9
2017-Jul-13 04:30N 58°06' E 006°48'0 0.0
2017-Jul-13 04:00N 58°06' E 006°48'0 0.0
2017-Jul-13 03:30N 58°06' E 006°48'0 0.0
2017-Jul-13 03:00N 58°06' E 006°48'0 0.0
2017-Jul-13 02:30N 58°06' E 006°48'0 0.0
2017-Jul-13 02:00N 58°06' E 006°48'0 0.0
2017-Jul-13 01:30N 58°06' E 006°48'0 0.0
2017-Jul-13 01:00N 58°06' E 006°48'0 0.0
2017-Jul-13 00:30N 58°06' E 006°48'0 0.0
2017-Jul-13 00:00N 58°06' E 006°48'0 0.0
2017-Jul-12 23:30N 58°06' E 006°48'0 0.0
2017-Jul-12 23:00N 58°06' E 006°48'0 0.0
2017-Jul-12 22:30N 58°06' E 006°48'0 0.0
2017-Jul-12 22:00N 58°06' E 006°48'0 0.0
2017-Jul-12 21:30N 58°06' E 006°48'0 0.0
2017-Jul-12 21:00N 58°06' E 006°48'0 0.0
2017-Jul-12 20:30N 58°06' E 006°48'0 0.0
2017-Jul-12 20:00N 58°06' E 006°48'0 0.0
2017-Jul-12 19:30N 58°06' E 006°48'0 0.0
2017-Jul-12 19:00N 58°06' E 006°48'0 0.0
2017-Jul-12 18:30N 58°06' E 006°48'0 0.0
2017-Jul-12 18:00N 58°06' E 006°48'0 0.0
2017-Jul-12 17:30N 58°06' E 006°48'0 0.0
2017-Jul-12 17:00N 58°06' E 006°48'0 0.0
2017-Jul-12 16:30N 58°06' E 006°48'0 0.0
2017-Jul-12 16:00N 58°06' E 006°48'0 0.0
2017-Jul-12 15:30N 58°06' E 006°48'0 0.0
2017-Jul-12 15:00N 58°06' E 006°48'0 0.0
2017-Jul-12 14:00N 58°06' E 006°48'0 0.0
2017-Jul-12 13:30N 58°06' E 006°48'0 0.0
2017-Jul-12 13:00N 58°06' E 006°48'0 0.0
2017-Jul-12 12:31N 58°06' E 006°48'0 0.0
2017-Jul-12 12:00N 58°06' E 006°48'1 1.0
2017-Jul-12 11:30N 58°05' E 006°49'0 0.8
2017-Jul-12 11:00N 58°06' E 006°49'0 0.5
2017-Jul-12 10:31N 58°06' E 006°48'0 0.0
2017-Jul-12 10:00N 58°06' E 006°48'0 0.0
2017-Jul-12 09:30N 58°06' E 006°48'0 0.0
2017-Jul-12 09:00N 58°06' E 006°48'0 0.0
2017-Jul-12 08:30N 58°06' E 006°48'0 0.0
2017-Jul-12 08:00N 58°06' E 006°48'0 0.0
2017-Jul-12 07:30N 58°06' E 006°48'0 0.0
2017-Jul-12 07:00N 58°06' E 006°48'0 0.0
2017-Jul-12 06:31N 58°06' E 006°48'0 0.0
2017-Jul-12 06:00N 58°06' E 006°48'0 0.0
2017-Jul-12 05:30N 58°06' E 006°48'0 0.0
2017-Jul-12 05:00N 58°06' E 006°48'0 0.0
2017-Jul-12 04:30N 58°06' E 006°48'0 0.0
2017-Jul-12 04:00N 58°06' E 006°48'0 0.0
2017-Jul-12 03:31N 58°06' E 006°48'0 0.0
2017-Jul-12 03:00N 58°06' E 006°48'0 0.0
2017-Jul-12 02:30N 58°06' E 006°48'0 0.0
2017-Jul-12 02:00N 58°06' E 006°48'0 0.0
2017-Jul-12 01:30N 58°06' E 006°48'0 0.0
2017-Jul-12 01:00N 58°06' E 006°48'0 0.0
2017-Jul-12 00:30N 58°06' E 006°48'0 0.0
2017-Jul-12 00:00N 58°06' E 006°48'0 0.0
2017-Jul-11 23:30N 58°06' E 006°48'0 0.0
2017-Jul-11 23:00N 58°06' E 006°48'0 0.0
2017-Jul-11 22:31N 58°06' E 006°48'0 0.0
2017-Jul-11 22:00N 58°06' E 006°48'0 0.0
2017-Jul-11 21:30N 58°06' E 006°48'0 0.0
2017-Jul-11 21:00N 58°06' E 006°48'0 0.0
2017-Jul-11 20:30N 58°06' E 006°48'0 0.0
2017-Jul-11 20:00N 58°06' E 006°48'0 0.0
2017-Jul-11 19:30N 58°06' E 006°48'0 0.0
2017-Jul-11 19:00N 58°06' E 006°48'0 0.0
2017-Jul-11 18:31N 58°06' E 006°48'0 0.0
2017-Jul-11 18:00N 58°06' E 006°48'0 0.0
2017-Jul-11 17:31N 58°06' E 006°48'0 0.0
2017-Jul-11 17:01N 58°06' E 006°48'0 0.0
2017-Jul-11 16:30N 58°06' E 006°48'0 0.0
2017-Jul-11 16:01N 58°06' E 006°48'0 0.0
2017-Jul-11 15:30N 58°06' E 006°48'0 0.0
2017-Jul-11 15:00N 58°06' E 006°48'0 0.0
2017-Jul-11 14:30N 58°06' E 006°48'0 0.0
2017-Jul-11 14:01N 58°06' E 006°48'0 0.0
2017-Jul-11 13:30N 58°06' E 006°48'0 0.0
2017-Jul-11 13:00N 58°06' E 006°48'0 0.0
2017-Jul-11 12:30N 58°06' E 006°48'2 4.5
2017-Jul-11 12:00N 58°04' E 006°52'4 8.4
2017-Jul-11 11:31N 58°03' E 006°59'612.2
2017-Jul-11 11:00N 58°05' E 006°48'1 1.5
2017-Jul-11 10:30N 58°06' E 006°48'0 0.0
2017-Jul-11 10:00N 58°06' E 006°48'0 0.0
2017-Jul-11 09:30N 58°06' E 006°48'0 0.0
2017-Jul-11 09:00N 58°06' E 006°48'0 0.0
2017-Jul-11 08:30N 58°06' E 006°48'0 0.0
2017-Jul-11 08:00N 58°06' E 006°48'0 0.0
2017-Jul-11 07:30N 58°06' E 006°48'0 0.0
2017-Jul-11 07:00N 58°06' E 006°48'0 0.0
2017-Jul-11 06:30N 58°06' E 006°48'0 0.0
2017-Jul-11 06:00N 58°06' E 006°48'0 0.0
2017-Jul-11 05:30N 58°06' E 006°48'0 0.0
2017-Jul-11 05:00N 58°06' E 006°48'0 0.0
2017-Jul-11 04:30N 58°06' E 006°48'0 0.0
2017-Jul-11 04:00N 58°06' E 006°48'0 0.0
2017-Jul-11 03:30N 58°06' E 006°48'0 0.0
2017-Jul-11 03:00N 58°06' E 006°48'0 0.0
2017-Jul-11 02:30N 58°06' E 006°48'0 0.0
2017-Jul-11 02:00N 58°06' E 006°48'0 0.0
2017-Jul-11 01:30N 58°06' E 006°48'0 0.0
2017-Jul-11 01:00N 58°06' E 006°48'0 0.0
2017-Jul-11 00:30N 58°06' E 006°48'0 0.0
2017-Jul-11 00:00N 58°06' E 006°48'0 0.0
2017-Jul-10 23:30N 58°06' E 006°48'0 0.0
2017-Jul-10 23:00N 58°06' E 006°48'0 0.0
2017-Jul-10 22:30N 58°06' E 006°48'0 0.0
2017-Jul-10 22:00N 58°06' E 006°48'0 0.0
2017-Jul-10 21:30N 58°06' E 006°48'0 0.0
2017-Jul-10 21:00N 58°06' E 006°48'1 1.4
2017-Jul-10 20:31N 58°05' E 006°49'510.3
2017-Jul-10 20:00N 58°03' E 006°58'1 2.6
2017-Jul-10 19:30N 58°02' E 006°56'510.1
2017-Jul-10 19:00N 58°05' E 006°49'1 1.5
2017-Jul-10 18:30N 58°06' E 006°48'0 0.0
2017-Jul-10 18:00N 58°06' E 006°48'0 0.0
2017-Jul-10 17:30N 58°06' E 006°48'0 0.0
2017-Jul-10 17:00N 58°06' E 006°48'0 0.0
2017-Jul-10 16:30N 58°06' E 006°48'0 0.0
2017-Jul-10 16:00N 58°06' E 006°48'0 0.0
2017-Jul-10 15:30N 58°06' E 006°48'0 0.0
2017-Jul-10 15:00N 58°06' E 006°48'0 0.0
2017-Jul-10 14:30N 58°06' E 006°48'  

Dump ship's entire track history